sensor_id;sensor_type;location;lat;lon;timestamp;P1;durP1;ratioP1;P2;durP2;ratioP2
72801;SDS011;61891;55.818;37.084;2022-08-19T00:02:05;7.88;;;5.30;;
72801;SDS011;61891;55.818;37.084;2022-08-19T00:07:00;7.32;;;4.97;;
72801;SDS011;61891;55.818;37.084;2022-08-19T00:09:26;6.28;;;5.05;;
72801;SDS011;61891;55.818;37.084;2022-08-19T00:11:53;7.20;;;5.53;;
72801;SDS011;61891;55.818;37.084;2022-08-19T00:14:21;6.68;;;5.35;;
72801;SDS011;61891;55.818;37.084;2022-08-19T00:16:48;7.35;;;5.43;;
72801;SDS011;61891;55.818;37.084;2022-08-19T00:19:14;10.07;;;5.90;;
72801;SDS011;61891;55.818;37.084;2022-08-19T00:21:41;7.13;;;5.22;;
72801;SDS011;61891;55.818;37.084;2022-08-19T00:24:09;9.32;;;6.15;;
72801;SDS011;61891;55.818;37.084;2022-08-19T00:26:37;9.82;;;5.60;;
72801;SDS011;61891;55.818;37.084;2022-08-19T00:29:04;6.88;;;5.07;;
72801;SDS011;61891;55.818;37.084;2022-08-19T00:31:31;9.32;;;5.30;;
72801;SDS011;61891;55.818;37.084;2022-08-19T00:33:57;8.00;;;5.97;;
72801;SDS011;61891;55.818;37.084;2022-08-19T00:38:48;8.85;;;5.93;;
72801;SDS011;61891;55.818;37.084;2022-08-19T00:41:17;9.48;;;5.88;;
72801;SDS011;61891;55.818;37.084;2022-08-19T00:44:00;10.40;;;6.07;;
72801;SDS011;61891;55.818;37.084;2022-08-19T00:46:26;10.43;;;6.22;;
72801;SDS011;61891;55.818;37.084;2022-08-19T00:48:52;8.63;;;6.07;;
72801;SDS011;61891;55.818;37.084;2022-08-19T00:51:20;9.50;;;5.53;;
72801;SDS011;61891;55.818;37.084;2022-08-19T00:53:46;8.63;;;6.00;;
72801;SDS011;61891;55.818;37.084;2022-08-19T00:58:38;7.78;;;5.80;;
72801;SDS011;61891;55.818;37.084;2022-08-19T01:01:05;8.75;;;5.47;;
72801;SDS011;61891;55.818;37.084;2022-08-19T01:05:56;9.82;;;6.13;;
72801;SDS011;61891;55.818;37.084;2022-08-19T01:10:49;8.27;;;5.32;;
72801;SDS011;61891;55.818;37.084;2022-08-19T01:13:19;8.27;;;5.65;;
72801;SDS011;61891;55.818;37.084;2022-08-19T01:15:49;8.70;;;5.57;;
72801;SDS011;61891;55.818;37.084;2022-08-19T01:18:23;8.15;;;5.75;;
72801;SDS011;61891;55.818;37.084;2022-08-19T01:20:50;8.63;;;5.40;;
72801;SDS011;61891;55.818;37.084;2022-08-19T01:23:16;11.98;;;5.97;;
72801;SDS011;61891;55.818;37.084;2022-08-19T01:25:47;8.68;;;5.55;;
72801;SDS011;61891;55.818;37.084;2022-08-19T01:28:19;7.53;;;5.22;;
72801;SDS011;61891;55.818;37.084;2022-08-19T01:30:51;10.52;;;5.70;;
72801;SDS011;61891;55.818;37.084;2022-08-19T01:33:19;8.25;;;6.03;;
72801;SDS011;61891;55.818;37.084;2022-08-19T01:35:45;8.57;;;6.15;;
72801;SDS011;61891;55.818;37.084;2022-08-19T01:40:46;10.23;;;6.32;;
72801;SDS011;61891;55.818;37.084;2022-08-19T01:45:38;9.35;;;6.30;;
72801;SDS011;61891;55.818;37.084;2022-08-19T01:48:05;10.95;;;5.80;;
72801;SDS011;61891;55.818;37.084;2022-08-19T01:50:32;8.13;;;5.90;;
72801;SDS011;61891;55.818;37.084;2022-08-19T01:52:59;9.63;;;5.70;;
72801;SDS011;61891;55.818;37.084;2022-08-19T01:55:26;8.70;;;5.93;;
72801;SDS011;61891;55.818;37.084;2022-08-19T02:00:22;10.32;;;6.30;;
72801;SDS011;61891;55.818;37.084;2022-08-19T02:02:50;9.63;;;6.00;;
72801;SDS011;61891;55.818;37.084;2022-08-19T02:07:43;12.00;;;6.40;;
72801;SDS011;61891;55.818;37.084;2022-08-19T02:10:12;10.20;;;6.55;;
72801;SDS011;61891;55.818;37.084;2022-08-19T02:12:40;10.05;;;6.20;;
72801;SDS011;61891;55.818;37.084;2022-08-19T02:17:32;10.52;;;6.72;;
72801;SDS011;61891;55.818;37.084;2022-08-19T02:19:58;10.55;;;6.78;;
72801;SDS011;61891;55.818;37.084;2022-08-19T02:22:25;11.70;;;6.13;;
72801;SDS011;61891;55.818;37.084;2022-08-19T02:24:52;9.85;;;6.65;;
72801;SDS011;61891;55.818;37.084;2022-08-19T02:27:18;8.88;;;7.00;;
72801;SDS011;61891;55.818;37.084;2022-08-19T02:29:48;11.90;;;6.88;;
72801;SDS011;61891;55.818;37.084;2022-08-19T02:32:15;9.48;;;7.75;;
72801;SDS011;61891;55.818;37.084;2022-08-19T02:34:43;11.85;;;6.97;;
72801;SDS011;61891;55.818;37.084;2022-08-19T02:39:55;10.90;;;6.70;;
72801;SDS011;61891;55.818;37.084;2022-08-19T02:44:46;12.80;;;7.38;;
72801;SDS011;61891;55.818;37.084;2022-08-19T02:49:39;10.70;;;6.97;;
72801;SDS011;61891;55.818;37.084;2022-08-19T02:54:30;12.23;;;7.57;;
72801;SDS011;61891;55.818;37.084;2022-08-19T02:59:21;11.07;;;7.20;;
72801;SDS011;61891;55.818;37.084;2022-08-19T03:04:14;11.23;;;7.38;;
72801;SDS011;61891;55.818;37.084;2022-08-19T03:06:42;12.85;;;7.70;;
72801;SDS011;61891;55.818;37.084;2022-08-19T03:09:09;12.32;;;7.55;;
72801;SDS011;61891;55.818;37.084;2022-08-19T03:11:36;10.48;;;6.90;;
72801;SDS011;61891;55.818;37.084;2022-08-19T03:14:02;11.05;;;7.53;;
72801;SDS011;61891;55.818;37.084;2022-08-19T03:16:32;10.50;;;6.97;;
72801;SDS011;61891;55.818;37.084;2022-08-19T03:19:00;12.18;;;7.30;;
72801;SDS011;61891;55.818;37.084;2022-08-19T03:21:27;14.32;;;7.72;;
72801;SDS011;61891;55.818;37.084;2022-08-19T03:23:56;11.07;;;7.20;;
72801;SDS011;61891;55.818;37.084;2022-08-19T03:26:23;12.57;;;7.68;;
72801;SDS011;61891;55.818;37.084;2022-08-19T03:31:16;11.35;;;7.00;;
72801;SDS011;61891;55.818;37.084;2022-08-19T03:33:46;11.38;;;6.93;;
72801;SDS011;61891;55.818;37.084;2022-08-19T03:38:43;11.00;;;7.22;;
72801;SDS011;61891;55.818;37.084;2022-08-19T03:41:20;15.15;;;7.30;;
72801;SDS011;61891;55.818;37.084;2022-08-19T03:43:48;10.93;;;6.75;;
72801;SDS011;61891;55.818;37.084;2022-08-19T03:46:20;10.40;;;6.68;;
72801;SDS011;61891;55.818;37.084;2022-08-19T03:48:50;11.95;;;7.30;;
72801;SDS011;61891;55.818;37.084;2022-08-19T03:51:25;13.07;;;6.93;;
72801;SDS011;61891;55.818;37.084;2022-08-19T03:53:56;12.25;;;6.72;;
72801;SDS011;61891;55.818;37.084;2022-08-19T03:56:23;11.45;;;6.72;;
72801;SDS011;61891;55.818;37.084;2022-08-19T03:58:51;11.18;;;6.32;;
72801;SDS011;61891;55.818;37.084;2022-08-19T04:01:19;13.00;;;7.25;;
72801;SDS011;61891;55.818;37.084;2022-08-19T04:03:46;12.70;;;7.05;;
72801;SDS011;61891;55.818;37.084;2022-08-19T04:06:13;10.43;;;6.72;;
72801;SDS011;61891;55.818;37.084;2022-08-19T04:08:42;10.25;;;6.65;;
72801;SDS011;61891;55.818;37.084;2022-08-19T04:11:09;12.15;;;6.47;;
72801;SDS011;61891;55.818;37.084;2022-08-19T04:13:37;11.65;;;6.63;;
72801;SDS011;61891;55.818;37.084;2022-08-19T04:18:29;13.38;;;6.53;;
72801;SDS011;61891;55.818;37.084;2022-08-19T04:20:55;9.13;;;5.82;;
72801;SDS011;61891;55.818;37.084;2022-08-19T04:23:22;8.02;;;6.00;;
72801;SDS011;61891;55.818;37.084;2022-08-19T04:25:48;9.77;;;6.47;;
72801;SDS011;61891;55.818;37.084;2022-08-19T04:28:14;10.13;;;6.25;;
72801;SDS011;61891;55.818;37.084;2022-08-19T04:33:08;10.30;;;5.80;;
72801;SDS011;61891;55.818;37.084;2022-08-19T04:35:39;11.05;;;6.10;;
72801;SDS011;61891;55.818;37.084;2022-08-19T04:38:07;10.32;;;5.95;;
72801;SDS011;61891;55.818;37.084;2022-08-19T04:40:34;10.55;;;5.50;;
72801;SDS011;61891;55.818;37.084;2022-08-19T04:43:24;11.82;;;5.82;;
72801;SDS011;61891;55.818;37.084;2022-08-19T04:48:16;12.60;;;5.75;;
72801;SDS011;61891;55.818;37.084;2022-08-19T04:50:54;8.23;;;5.75;;
72801;SDS011;61891;55.818;37.084;2022-08-19T04:53:24;10.90;;;6.47;;
72801;SDS011;61891;55.818;37.084;2022-08-19T04:55:52;10.60;;;5.55;;
72801;SDS011;61891;55.818;37.084;2022-08-19T05:00:43;11.00;;;5.95;;
72801;SDS011;61891;55.818;37.084;2022-08-19T05:05:37;13.38;;;6.15;;
72801;SDS011;61891;55.818;37.084;2022-08-19T05:08:04;11.63;;;5.85;;
72801;SDS011;61891;55.818;37.084;2022-08-19T05:10:31;9.75;;;5.97;;
72801;SDS011;61891;55.818;37.084;2022-08-19T05:15:22;9.73;;;5.70;;
72801;SDS011;61891;55.818;37.084;2022-08-19T05:20:32;12.30;;;5.38;;
72801;SDS011;61891;55.818;37.084;2022-08-19T05:23:17;10.15;;;5.72;;
72801;SDS011;61891;55.818;37.084;2022-08-19T05:25:43;9.18;;;5.60;;
72801;SDS011;61891;55.818;37.084;2022-08-19T05:28:09;12.13;;;5.88;;
72801;SDS011;61891;55.818;37.084;2022-08-19T05:30:35;9.80;;;5.57;;
72801;SDS011;61891;55.818;37.084;2022-08-19T05:35:26;9.38;;;5.20;;
72801;SDS011;61891;55.818;37.084;2022-08-19T05:37:53;9.52;;;5.50;;
72801;SDS011;61891;55.818;37.084;2022-08-19T05:40:19;12.77;;;6.43;;
72801;SDS011;61891;55.818;37.084;2022-08-19T05:42:45;13.18;;;5.75;;
72801;SDS011;61891;55.818;37.084;2022-08-19T05:47:36;11.90;;;5.25;;
72801;SDS011;61891;55.818;37.084;2022-08-19T05:50:02;9.60;;;5.13;;
72801;SDS011;61891;55.818;37.084;2022-08-19T05:52:29;9.68;;;5.38;;
72801;SDS011;61891;55.818;37.084;2022-08-19T05:54:55;8.07;;;4.82;;
72801;SDS011;61891;55.818;37.084;2022-08-19T05:57:21;8.25;;;4.72;;
72801;SDS011;61891;55.818;37.084;2022-08-19T05:59:47;6.85;;;4.40;;
72801;SDS011;61891;55.818;37.084;2022-08-19T06:02:16;10.68;;;5.03;;
72801;SDS011;61891;55.818;37.084;2022-08-19T06:04:42;8.63;;;4.32;;
72801;SDS011;61891;55.818;37.084;2022-08-19T06:07:08;6.47;;;4.18;;
72801;SDS011;61891;55.818;37.084;2022-08-19T06:09:34;8.65;;;4.22;;
72801;SDS011;61891;55.818;37.084;2022-08-19T06:12:00;7.82;;;4.40;;
72801;SDS011;61891;55.818;37.084;2022-08-19T06:14:28;12.48;;;5.03;;
72801;SDS011;61891;55.818;37.084;2022-08-19T06:16:57;7.95;;;4.15;;
72801;SDS011;61891;55.818;37.084;2022-08-19T06:19:25;7.40;;;4.15;;
72801;SDS011;61891;55.818;37.084;2022-08-19T06:21:51;9.98;;;4.50;;
72801;SDS011;61891;55.818;37.084;2022-08-19T06:24:20;9.57;;;4.50;;
72801;SDS011;61891;55.818;37.084;2022-08-19T06:26:50;10.55;;;4.63;;
72801;SDS011;61891;55.818;37.084;2022-08-19T06:29:20;9.38;;;4.35;;
72801;SDS011;61891;55.818;37.084;2022-08-19T06:34:19;6.57;;;3.92;;
72801;SDS011;61891;55.818;37.084;2022-08-19T06:36:46;6.88;;;4.15;;
72801;SDS011;61891;55.818;37.084;2022-08-19T06:39:19;9.50;;;4.45;;
72801;SDS011;61891;55.818;37.084;2022-08-19T06:41:51;7.13;;;4.35;;
72801;SDS011;61891;55.818;37.084;2022-08-19T06:44:22;9.25;;;4.60;;
72801;SDS011;61891;55.818;37.084;2022-08-19T06:46:51;8.30;;;4.50;;
72801;SDS011;61891;55.818;37.084;2022-08-19T06:49:17;7.78;;;4.70;;
72801;SDS011;61891;55.818;37.084;2022-08-19T06:51:44;9.90;;;4.68;;
72801;SDS011;61891;55.818;37.084;2022-08-19T06:54:15;7.07;;;4.40;;
72801;SDS011;61891;55.818;37.084;2022-08-19T06:56:42;9.75;;;5.20;;
72801;SDS011;61891;55.818;37.084;2022-08-19T06:59:09;7.88;;;4.70;;
72801;SDS011;61891;55.818;37.084;2022-08-19T07:01:58;11.73;;;4.82;;
72801;SDS011;61891;55.818;37.084;2022-08-19T07:04:23;8.27;;;4.70;;
72801;SDS011;61891;55.818;37.084;2022-08-19T07:07:13;9.48;;;4.38;;
72801;SDS011;61891;55.818;37.084;2022-08-19T07:09:41;5.53;;;4.45;;
72801;SDS011;61891;55.818;37.084;2022-08-19T07:12:11;9.32;;;4.93;;
72801;SDS011;61891;55.818;37.084;2022-08-19T07:14:41;6.50;;;4.68;;
72801;SDS011;61891;55.818;37.084;2022-08-19T07:17:07;9.50;;;4.55;;
72801;SDS011;61891;55.818;37.084;2022-08-19T07:19:37;8.90;;;4.72;;
72801;SDS011;61891;55.818;37.084;2022-08-19T07:22:04;9.00;;;4.72;;
72801;SDS011;61891;55.818;37.084;2022-08-19T07:24:31;10.05;;;5.32;;
72801;SDS011;61891;55.818;37.084;2022-08-19T07:26:59;5.57;;;4.53;;
72801;SDS011;61891;55.818;37.084;2022-08-19T07:29:31;8.48;;;4.78;;
72801;SDS011;61891;55.818;37.084;2022-08-19T07:31:58;8.27;;;5.07;;
72801;SDS011;61891;55.818;37.084;2022-08-19T07:34:25;10.02;;;4.60;;
72801;SDS011;61891;55.818;37.084;2022-08-19T07:36:53;9.15;;;4.72;;
72801;SDS011;61891;55.818;37.084;2022-08-19T07:39:24;14.98;;;5.80;;
72801;SDS011;61891;55.818;37.084;2022-08-19T07:41:53;8.73;;;4.75;;
72801;SDS011;61891;55.818;37.084;2022-08-19T07:44:20;9.63;;;4.85;;
72801;SDS011;61891;55.818;37.084;2022-08-19T07:46:47;8.35;;;4.93;;
72801;SDS011;61891;55.818;37.084;2022-08-19T07:49:19;10.35;;;4.78;;
72801;SDS011;61891;55.818;37.084;2022-08-19T07:51:56;9.07;;;4.72;;
72801;SDS011;61891;55.818;37.084;2022-08-19T07:54:29;8.45;;;4.68;;
72801;SDS011;61891;55.818;37.084;2022-08-19T07:56:56;8.00;;;4.88;;
72801;SDS011;61891;55.818;37.084;2022-08-19T07:59:22;7.95;;;4.72;;
72801;SDS011;61891;55.818;37.084;2022-08-19T08:01:57;11.57;;;4.70;;
72801;SDS011;61891;55.818;37.084;2022-08-19T08:04:26;9.90;;;4.65;;
72801;SDS011;61891;55.818;37.084;2022-08-19T08:07:11;9.45;;;5.10;;
72801;SDS011;61891;55.818;37.084;2022-08-19T08:09:56;8.60;;;5.30;;
72801;SDS011;61891;55.818;37.084;2022-08-19T08:12:23;8.88;;;5.00;;
72801;SDS011;61891;55.818;37.084;2022-08-19T08:14:57;9.88;;;5.13;;
72801;SDS011;61891;55.818;37.084;2022-08-19T08:17:30;8.90;;;4.90;;
72801;SDS011;61891;55.818;37.084;2022-08-19T08:19:56;7.10;;;5.10;;
72801;SDS011;61891;55.818;37.084;2022-08-19T08:22:23;8.25;;;5.15;;
72801;SDS011;61891;55.818;37.084;2022-08-19T08:27:39;9.73;;;6.07;;
72801;SDS011;61891;55.818;37.084;2022-08-19T08:30:11;7.60;;;5.40;;
72801;SDS011;61891;55.818;37.084;2022-08-19T08:32:39;9.95;;;5.07;;
72801;SDS011;61891;55.818;37.084;2022-08-19T08:35:07;5.68;;;4.60;;
72801;SDS011;61891;55.818;37.084;2022-08-19T08:37:34;9.48;;;4.82;;
72801;SDS011;61891;55.818;37.084;2022-08-19T08:40:37;10.27;;;5.22;;
72801;SDS011;61891;55.818;37.084;2022-08-19T08:45:35;9.20;;;4.70;;
72801;SDS011;61891;55.818;37.084;2022-08-19T08:48:11;6.20;;;4.00;;
72801;SDS011;61891;55.818;37.084;2022-08-19T08:50:46;6.60;;;3.97;;
72801;SDS011;61891;55.818;37.084;2022-08-19T08:53:17;6.10;;;3.05;;
72801;SDS011;61891;55.818;37.084;2022-08-19T08:55:43;5.32;;;3.50;;
72801;SDS011;61891;55.818;37.084;2022-08-19T08:58:13;7.50;;;3.75;;
72801;SDS011;61891;55.818;37.084;2022-08-19T09:00:46;9.40;;;4.18;;
72801;SDS011;61891;55.818;37.084;2022-08-19T09:03:16;7.47;;;3.83;;
72801;SDS011;61891;55.818;37.084;2022-08-19T09:08:17;5.00;;;3.45;;
72801;SDS011;61891;55.818;37.084;2022-08-19T09:11:08;7.90;;;3.65;;
72801;SDS011;61891;55.818;37.084;2022-08-19T09:16:26;7.45;;;4.07;;
72801;SDS011;61891;55.818;37.084;2022-08-19T09:18:54;8.73;;;4.35;;
72801;SDS011;61891;55.818;37.084;2022-08-19T09:21:24;13.25;;;4.22;;
72801;SDS011;61891;55.818;37.084;2022-08-19T09:23:51;6.53;;;3.75;;
72801;SDS011;61891;55.818;37.084;2022-08-19T09:26:18;6.82;;;4.60;;
72801;SDS011;61891;55.818;37.084;2022-08-19T09:28:47;5.85;;;4.03;;
72801;SDS011;61891;55.818;37.084;2022-08-19T09:31:25;15.07;;;4.90;;
72801;SDS011;61891;55.818;37.084;2022-08-19T09:33:52;15.82;;;5.00;;
72801;SDS011;61891;55.818;37.084;2022-08-19T09:36:22;8.18;;;4.68;;
72801;SDS011;61891;55.818;37.084;2022-08-19T09:38:51;7.75;;;4.85;;
72801;SDS011;61891;55.818;37.084;2022-08-19T09:41:19;9.50;;;4.95;;
72801;SDS011;61891;55.818;37.084;2022-08-19T09:43:47;13.65;;;5.50;;
72801;SDS011;61891;55.818;37.084;2022-08-19T09:46:17;15.45;;;5.10;;
72801;SDS011;61891;55.818;37.084;2022-08-19T09:48:46;11.68;;;4.90;;
72801;SDS011;61891;55.818;37.084;2022-08-19T09:51:19;9.02;;;4.65;;
72801;SDS011;61891;55.818;37.084;2022-08-19T09:53:47;8.05;;;4.75;;
72801;SDS011;61891;55.818;37.084;2022-08-19T09:58:46;6.88;;;4.93;;
72801;SDS011;61891;55.818;37.084;2022-08-19T10:01:22;8.02;;;4.70;;
72801;SDS011;61891;55.818;37.084;2022-08-19T10:03:50;6.78;;;5.05;;
72801;SDS011;61891;55.818;37.084;2022-08-19T10:06:19;9.82;;;4.93;;
72801;SDS011;61891;55.818;37.084;2022-08-19T10:08:46;6.22;;;5.10;;
72801;SDS011;61891;55.818;37.084;2022-08-19T10:11:13;10.00;;;4.95;;
72801;SDS011;61891;55.818;37.084;2022-08-19T10:13:41;7.07;;;4.90;;
72801;SDS011;61891;55.818;37.084;2022-08-19T10:16:10;4.90;;;4.25;;
72801;SDS011;61891;55.818;37.084;2022-08-19T10:18:38;8.50;;;4.53;;
72801;SDS011;61891;55.818;37.084;2022-08-19T10:21:09;9.95;;;4.32;;
72801;SDS011;61891;55.818;37.084;2022-08-19T10:23:41;7.53;;;4.32;;
72801;SDS011;61891;55.818;37.084;2022-08-19T10:26:11;9.52;;;4.78;;
72801;SDS011;61891;55.818;37.084;2022-08-19T10:28:39;6.50;;;4.30;;
72801;SDS011;61891;55.818;37.084;2022-08-19T10:31:06;9.50;;;4.82;;
72801;SDS011;61891;55.818;37.084;2022-08-19T10:33:38;8.85;;;4.63;;
72801;SDS011;61891;55.818;37.084;2022-08-19T10:36:09;8.73;;;4.65;;
72801;SDS011;61891;55.818;37.084;2022-08-19T10:38:40;7.82;;;4.85;;
72801;SDS011;61891;55.818;37.084;2022-08-19T10:41:10;8.30;;;4.93;;
72801;SDS011;61891;55.818;37.084;2022-08-19T10:43:40;7.78;;;4.25;;
72801;SDS011;61891;55.818;37.084;2022-08-19T10:46:10;11.45;;;5.30;;
72801;SDS011;61891;55.818;37.084;2022-08-19T10:48:38;11.77;;;4.15;;
72801;SDS011;61891;55.818;37.084;2022-08-19T10:51:05;11.63;;;4.60;;
72801;SDS011;61891;55.818;37.084;2022-08-19T10:53:50;7.50;;;4.13;;
72801;SDS011;61891;55.818;37.084;2022-08-19T10:56:17;10.23;;;4.35;;
72801;SDS011;61891;55.818;37.084;2022-08-19T10:59:02;9.35;;;4.95;;
72801;SDS011;61891;55.818;37.084;2022-08-19T11:01:28;7.32;;;4.55;;
72801;SDS011;61891;55.818;37.084;2022-08-19T11:03:57;7.70;;;4.70;;
72801;SDS011;61891;55.818;37.084;2022-08-19T11:06:23;8.32;;;4.88;;
72801;SDS011;61891;55.818;37.084;2022-08-19T11:08:55;7.47;;;5.05;;
72801;SDS011;61891;55.818;37.084;2022-08-19T11:11:21;5.80;;;5.03;;
72801;SDS011;61891;55.818;37.084;2022-08-19T11:13:48;18.50;;;6.07;;
72801;SDS011;61891;55.818;37.084;2022-08-19T11:16:17;12.95;;;5.63;;
72801;SDS011;61891;55.818;37.084;2022-08-19T11:18:45;12.50;;;5.13;;
72801;SDS011;61891;55.818;37.084;2022-08-19T11:21:15;11.27;;;5.72;;
72801;SDS011;61891;55.818;37.084;2022-08-19T11:23:53;10.45;;;5.15;;
72801;SDS011;61891;55.818;37.084;2022-08-19T11:26:22;10.27;;;4.95;;
72801;SDS011;61891;55.818;37.084;2022-08-19T11:28:48;8.55;;;5.28;;
72801;SDS011;61891;55.818;37.084;2022-08-19T11:31:20;9.35;;;5.32;;
72801;SDS011;61891;55.818;37.084;2022-08-19T11:33:48;10.00;;;5.40;;
72801;SDS011;61891;55.818;37.084;2022-08-19T11:36:18;8.40;;;5.55;;
72801;SDS011;61891;55.818;37.084;2022-08-19T11:38:46;11.68;;;5.30;;
72801;SDS011;61891;55.818;37.084;2022-08-19T11:41:14;12.80;;;6.40;;
72801;SDS011;61891;55.818;37.084;2022-08-19T11:43:41;15.05;;;5.68;;
72801;SDS011;61891;55.818;37.084;2022-08-19T11:46:10;9.00;;;5.15;;
72801;SDS011;61891;55.818;37.084;2022-08-19T11:48:38;7.20;;;4.13;;
72801;SDS011;61891;55.818;37.084;2022-08-19T11:51:05;10.40;;;4.07;;
72801;SDS011;61891;55.818;37.084;2022-08-19T11:53:35;8.15;;;3.83;;
72801;SDS011;61891;55.818;37.084;2022-08-19T11:56:02;6.90;;;3.80;;
72801;SDS011;61891;55.818;37.084;2022-08-19T11:58:30;7.78;;;3.33;;
72801;SDS011;61891;55.818;37.084;2022-08-19T12:00:56;11.82;;;3.75;;
72801;SDS011;61891;55.818;37.084;2022-08-19T12:03:22;5.57;;;3.55;;
72801;SDS011;61891;55.818;37.084;2022-08-19T12:05:49;9.27;;;3.78;;
72801;SDS011;61891;55.818;37.084;2022-08-19T12:08:16;7.13;;;3.70;;
72801;SDS011;61891;55.818;37.084;2022-08-19T12:10:43;7.78;;;3.42;;
72801;SDS011;61891;55.818;37.084;2022-08-19T12:13:10;8.07;;;3.95;;
72801;SDS011;61891;55.818;37.084;2022-08-19T12:15:45;6.05;;;3.60;;
72801;SDS011;61891;55.818;37.084;2022-08-19T12:18:11;7.22;;;3.28;;
72801;SDS011;61891;55.818;37.084;2022-08-19T12:20:39;6.78;;;3.47;;
72801;SDS011;61891;55.818;37.084;2022-08-19T12:23:07;5.55;;;3.55;;
72801;SDS011;61891;55.818;37.084;2022-08-19T12:25:35;7.93;;;3.33;;
72801;SDS011;61891;55.818;37.084;2022-08-19T12:28:02;10.43;;;3.55;;
72801;SDS011;61891;55.818;37.084;2022-08-19T12:30:28;5.63;;;3.20;;
72801;SDS011;61891;55.818;37.084;2022-08-19T12:32:53;6.65;;;3.45;;
72801;SDS011;61891;55.818;37.084;2022-08-19T12:35:19;4.93;;;3.55;;
72801;SDS011;61891;55.818;37.084;2022-08-19T12:37:46;5.90;;;4.10;;
72801;SDS011;61891;55.818;37.084;2022-08-19T12:40:15;5.93;;;4.22;;
72801;SDS011;61891;55.818;37.084;2022-08-19T12:42:41;5.57;;;3.90;;
72801;SDS011;61891;55.818;37.084;2022-08-19T12:45:08;4.88;;;3.85;;
72801;SDS011;61891;55.818;37.084;2022-08-19T12:47:35;7.28;;;4.32;;
72801;SDS011;61891;55.818;37.084;2022-08-19T12:50:01;10.38;;;4.10;;
72801;SDS011;61891;55.818;37.084;2022-08-19T12:52:28;7.90;;;3.83;;
72801;SDS011;61891;55.818;37.084;2022-08-19T12:54:54;5.40;;;4.10;;
72801;SDS011;61891;55.818;37.084;2022-08-19T12:57:22;6.32;;;3.92;;
72801;SDS011;61891;55.818;37.084;2022-08-19T12:59:52;7.47;;;4.03;;
72801;SDS011;61891;55.818;37.084;2022-08-19T13:02:21;7.10;;;6.40;;
72801;SDS011;61891;55.818;37.084;2022-08-19T13:04:47;8.00;;;5.85;;
72801;SDS011;61891;55.818;37.084;2022-08-19T13:07:13;6.18;;;4.50;;
72801;SDS011;61891;55.818;37.084;2022-08-19T13:09:39;6.10;;;4.65;;
72801;SDS011;61891;55.818;37.084;2022-08-19T13:12:08;9.43;;;4.45;;
72801;SDS011;61891;55.818;37.084;2022-08-19T13:14:38;5.57;;;4.10;;
72801;SDS011;61891;55.818;37.084;2022-08-19T13:17:05;8.18;;;4.05;;
72801;SDS011;61891;55.818;37.084;2022-08-19T13:19:32;6.82;;;3.72;;
72801;SDS011;61891;55.818;37.084;2022-08-19T13:21:57;6.18;;;3.85;;
72801;SDS011;61891;55.818;37.084;2022-08-19T13:24:24;4.38;;;3.83;;
72801;SDS011;61891;55.818;37.084;2022-08-19T13:26:50;9.00;;;3.90;;
72801;SDS011;61891;55.818;37.084;2022-08-19T13:29:16;5.72;;;3.78;;
72801;SDS011;61891;55.818;37.084;2022-08-19T13:32:00;6.80;;;4.35;;
72801;SDS011;61891;55.818;37.084;2022-08-19T13:34:44;5.82;;;3.83;;
72801;SDS011;61891;55.818;37.084;2022-08-19T13:37:12;7.85;;;4.88;;
72801;SDS011;61891;55.818;37.084;2022-08-19T13:39:38;9.55;;;4.43;;
72801;SDS011;61891;55.818;37.084;2022-08-19T13:42:03;7.00;;;4.32;;
72801;SDS011;61891;55.818;37.084;2022-08-19T13:44:30;6.57;;;3.78;;
72801;SDS011;61891;55.818;37.084;2022-08-19T13:47:00;7.07;;;4.30;;
72801;SDS011;61891;55.818;37.084;2022-08-19T13:49:30;7.93;;;4.40;;
72801;SDS011;61891;55.818;37.084;2022-08-19T13:51:56;6.80;;;4.22;;
72801;SDS011;61891;55.818;37.084;2022-08-19T13:54:22;7.90;;;4.95;;
72801;SDS011;61891;55.818;37.084;2022-08-19T13:56:48;10.23;;;4.97;;
72801;SDS011;61891;55.818;37.084;2022-08-19T13:59:14;8.98;;;4.93;;
72801;SDS011;61891;55.818;37.084;2022-08-19T14:01:40;8.88;;;4.57;;
72801;SDS011;61891;55.818;37.084;2022-08-19T14:04:06;12.27;;;4.60;;
72801;SDS011;61891;55.818;37.084;2022-08-19T14:06:33;9.88;;;5.70;;
72801;SDS011;61891;55.818;37.084;2022-08-19T14:08:59;6.32;;;5.45;;
72801;SDS011;61891;55.818;37.084;2022-08-19T14:11:27;8.60;;;5.68;;
72801;SDS011;61891;55.818;37.084;2022-08-19T14:13:53;10.15;;;5.85;;
72801;SDS011;61891;55.818;37.084;2022-08-19T14:16:19;8.90;;;6.13;;
72801;SDS011;61891;55.818;37.084;2022-08-19T14:18:46;6.68;;;5.00;;
72801;SDS011;61891;55.818;37.084;2022-08-19T14:21:22;11.80;;;5.35;;
72801;SDS011;61891;55.818;37.084;2022-08-19T14:23:49;7.97;;;5.60;;
72801;SDS011;61891;55.818;37.084;2022-08-19T14:26:17;10.15;;;5.22;;
72801;SDS011;61891;55.818;37.084;2022-08-19T14:28:43;8.35;;;5.60;;
72801;SDS011;61891;55.818;37.084;2022-08-19T14:31:10;8.48;;;5.82;;
72801;SDS011;61891;55.818;37.084;2022-08-19T14:33:38;9.85;;;5.72;;
72801;SDS011;61891;55.818;37.084;2022-08-19T14:36:05;9.18;;;5.45;;
72801;SDS011;61891;55.818;37.084;2022-08-19T14:38:31;8.88;;;5.60;;
72801;SDS011;61891;55.818;37.084;2022-08-19T14:41:08;8.43;;;5.55;;
72801;SDS011;61891;55.818;37.084;2022-08-19T14:43:36;8.95;;;5.97;;
72801;SDS011;61891;55.818;37.084;2022-08-19T14:46:03;12.32;;;6.13;;
72801;SDS011;61891;55.818;37.084;2022-08-19T14:48:33;9.73;;;5.32;;
72801;SDS011;61891;55.818;37.084;2022-08-19T14:50:59;8.27;;;4.68;;
72801;SDS011;61891;55.818;37.084;2022-08-19T14:53:25;15.15;;;5.75;;
72801;SDS011;61891;55.818;37.084;2022-08-19T14:55:51;9.50;;;5.70;;
72801;SDS011;61891;55.818;37.084;2022-08-19T14:58:17;11.60;;;5.93;;
72801;SDS011;61891;55.818;37.084;2022-08-19T15:00:43;9.90;;;6.22;;
72801;SDS011;61891;55.818;37.084;2022-08-19T15:03:08;8.57;;;6.40;;
72801;SDS011;61891;55.818;37.084;2022-08-19T15:05:34;7.18;;;6.13;;
72801;SDS011;61891;55.818;37.084;2022-08-19T15:08:03;7.07;;;6.20;;
72801;SDS011;61891;55.818;37.084;2022-08-19T15:10:29;7.38;;;5.75;;
72801;SDS011;61891;55.818;37.084;2022-08-19T15:12:56;9.93;;;5.43;;
72801;SDS011;61891;55.818;37.084;2022-08-19T15:15:21;12.45;;;6.18;;
72801;SDS011;61891;55.818;37.084;2022-08-19T15:17:48;8.85;;;6.03;;
72801;SDS011;61891;55.818;37.084;2022-08-19T15:20:15;8.88;;;6.57;;
72801;SDS011;61891;55.818;37.084;2022-08-19T15:22:43;10.68;;;6.57;;
72801;SDS011;61891;55.818;37.084;2022-08-19T15:25:09;8.93;;;7.55;;
72801;SDS011;61891;55.818;37.084;2022-08-19T15:27:37;14.48;;;10.52;;
72801;SDS011;61891;55.818;37.084;2022-08-19T15:30:04;14.32;;;12.45;;
72801;SDS011;61891;55.818;37.084;2022-08-19T15:32:30;15.15;;;12.23;;
72801;SDS011;61891;55.818;37.084;2022-08-19T15:34:55;16.10;;;13.05;;
72801;SDS011;61891;55.818;37.084;2022-08-19T15:37:21;15.65;;;14.15;;
72801;SDS011;61891;55.818;37.084;2022-08-19T15:39:48;20.52;;;15.27;;
72801;SDS011;61891;55.818;37.084;2022-08-19T15:42:14;19.92;;;16.88;;
72801;SDS011;61891;55.818;37.084;2022-08-19T15:44:40;24.00;;;18.05;;
72801;SDS011;61891;55.818;37.084;2022-08-19T15:47:05;20.10;;;17.55;;
72801;SDS011;61891;55.818;37.084;2022-08-19T15:49:31;22.48;;;17.77;;
72801;SDS011;61891;55.818;37.084;2022-08-19T15:51:57;20.75;;;17.90;;
72801;SDS011;61891;55.818;37.084;2022-08-19T15:54:24;21.60;;;18.27;;
72801;SDS011;61891;55.818;37.084;2022-08-19T15:56:50;23.90;;;19.15;;
72801;SDS011;61891;55.818;37.084;2022-08-19T15:59:35;24.35;;;18.98;;